createdAt,value
2023-05-10T00:03:10.287Z,3.65
2023-05-10T00:13:20.952Z,4.03
2023-05-10T00:18:25.996Z,4.63
2023-05-10T00:23:32.744Z,3.90
2023-05-10T00:28:37.800Z,3.17
2023-05-10T00:33:41.293Z,3.70
2023-05-10T00:38:47.336Z,2.00
2023-05-10T00:43:50.734Z,7.57
2023-05-10T00:48:54.976Z,2.35
2023-05-10T00:54:01.918Z,5.22
2023-05-10T00:59:06.632Z,2.28
2023-05-10T01:04:12.426Z,3.33
2023-05-10T01:09:21.782Z,2.58
2023-05-10T01:14:28.596Z,3.65
2023-05-10T01:19:38.585Z,3.20
2023-05-10T01:25:20.508Z,2.60
2023-05-10T01:31:25.780Z,2.88
2023-05-10T01:36:41.890Z,2.90
2023-05-10T01:41:58.922Z,3.38
2023-05-10T01:47:10.738Z,4.25
2023-05-10T01:52:23.138Z,2.97
2023-05-10T01:57:34.100Z,4.90
2023-05-10T02:02:44.298Z,4.00
2023-05-10T02:07:52.918Z,3.60
2023-05-10T02:13:01.584Z,4.15
2023-05-10T02:18:08.740Z,3.22
2023-05-10T02:23:17.115Z,3.50
2023-05-10T02:28:22.770Z,3.88
2023-05-10T02:33:28.178Z,3.92
2023-05-10T02:38:35.505Z,4.28
2023-05-10T02:43:43.117Z,4.00
2023-05-10T02:48:48.170Z,3.65
2023-05-10T02:53:56.910Z,4.00
2023-05-10T02:59:01.502Z,3.33
2023-05-10T03:04:05.651Z,4.78
2023-05-10T03:09:12.124Z,3.13
2023-05-10T03:14:31.991Z,2.80
2023-05-10T03:19:48.867Z,3.25
2023-05-10T03:24:58.336Z,2.87
2023-05-10T03:30:06.373Z,3.00
2023-05-10T03:35:11.513Z,4.07
2023-05-10T03:40:17.053Z,4.15
2023-05-10T03:45:21.053Z,3.25
2023-05-10T03:50:24.756Z,4.38
2023-05-10T03:55:30.427Z,3.42
2023-05-10T04:00:34.090Z,3.67
2023-05-10T04:05:38.311Z,3.20
2023-05-10T04:10:43.144Z,3.15
2023-05-10T04:15:48.249Z,3.42
2023-05-10T04:20:53.187Z,3.40
2023-05-10T04:26:04.415Z,3.25
2023-05-10T04:31:11.016Z,3.83
2023-05-10T04:36:15.966Z,3.47
2023-05-10T04:41:21.850Z,4.55
2023-05-10T04:46:26.073Z,4.78
2023-05-10T04:51:31.793Z,4.70
2023-05-10T04:56:38.088Z,8.68
2023-05-10T05:01:42.730Z,5.45
2023-05-10T05:06:47.825Z,4.22
2023-05-10T05:11:53.040Z,5.50
2023-05-10T05:16:57.123Z,6.28
2023-05-10T05:22:01.089Z,7.80
2023-05-10T05:27:06.666Z,11.10
2023-05-10T05:32:10.228Z,10.95
2023-05-10T05:37:16.447Z,11.07
2023-05-10T05:42:22.655Z,8.23
2023-05-10T05:47:32.108Z,8.07
2023-05-10T05:52:37.370Z,8.27
2023-05-10T05:57:43.446Z,6.57
2023-05-10T06:02:47.273Z,13.95
2023-05-10T06:07:50.877Z,13.50
2023-05-10T06:12:55.884Z,8.27
2023-05-10T06:17:59.297Z,5.47
2023-05-10T06:23:02.736Z,5.25
2023-05-10T06:28:07.503Z,11.73
2023-05-10T06:33:11.019Z,8.48
2023-05-10T06:38:14.394Z,11.13
2023-05-10T06:43:19.317Z,7.93
2023-05-10T06:48:22.936Z,11.82
2023-05-10T06:53:26.514Z,7.10
2023-05-10T06:58:31.247Z,9.80
2023-05-10T07:03:34.851Z,9.63
2023-05-10T07:08:38.252Z,9.43
2023-05-10T07:13:45.214Z,8.93
2023-05-10T07:18:48.689Z,5.50
2023-05-10T07:23:52.526Z,8.20
2023-05-10T07:28:57.272Z,8.27
2023-05-10T07:34:00.700Z,6.60
2023-05-10T07:39:04.273Z,7.93
2023-05-10T07:44:08.993Z,6.28
2023-05-10T07:49:12.354Z,6.03
2023-05-10T07:54:16.819Z,5.90
2023-05-10T07:59:21.526Z,6.03
2023-05-10T08:04:25.187Z,11.95
2023-05-10T08:09:28.653Z,6.70
2023-05-10T08:14:33.389Z,7.63
2023-05-10T08:19:36.852Z,9.07
2023-05-10T08:24:40.385Z,12.02
2023-05-10T08:29:50.223Z,10.38
2023-05-10T08:34:54.000Z,12.13
2023-05-10T08:39:57.386Z,11.48
2023-05-10T08:45:02.741Z,11.82
2023-05-10T08:50:07.906Z,7.00
2023-05-10T08:55:11.777Z,13.55
2023-05-10T09:00:18.784Z,11.02
2023-05-10T09:05:22.330Z,6.33
2023-05-10T09:10:28.349Z,6.68
2023-05-10T09:15:33.647Z,8.40
2023-05-10T09:20:37.125Z,11.90
2023-05-10T09:25:41.159Z,8.00
2023-05-10T09:30:45.900Z,11.38
2023-05-10T09:35:54.257Z,8.40
2023-05-10T09:40:58.750Z,5.18
2023-05-10T09:46:12.178Z,10.23
2023-05-10T09:51:22.536Z,11.32
2023-05-10T09:56:41.052Z,7.35
2023-05-10T10:01:52.678Z,9.95
2023-05-10T10:07:05.459Z,16.50
2023-05-10T10:12:09.620Z,10.90
2023-05-10T10:17:15.432Z,8.43
2023-05-10T10:22:19.646Z,5.97
2023-05-10T10:27:31.265Z,11.05
2023-05-10T10:33:27.315Z,6.28
2023-05-10T10:39:00.128Z,4.82
2023-05-10T10:44:36.469Z,4.40
2023-05-10T10:49:54.695Z,3.90
2023-05-10T10:55:07.646Z,5.93
2023-05-10T11:00:29.358Z,4.80
2023-05-10T11:05:44.926Z,5.28
2023-05-10T11:11:06.026Z,3.30
2023-05-10T11:16:18.067Z,3.90
2023-05-10T11:21:24.979Z,4.45
2023-05-10T11:26:34.668Z,5.93
2023-05-10T11:31:46.431Z,6.93
2023-05-10T11:36:56.198Z,7.80
2023-05-10T11:42:01.458Z,6.57
2023-05-10T11:47:06.489Z,7.95
2023-05-10T11:52:13.590Z,11.00
2023-05-10T11:57:18.489Z,8.80
2023-05-10T12:02:23.539Z,9.68
2023-05-10T12:07:30.865Z,10.10
2023-05-10T12:12:46.741Z,10.35
2023-05-10T12:17:52.729Z,10.23
2023-05-10T12:23:03.266Z,8.48
2023-05-10T12:28:10.910Z,6.45
2023-05-10T12:38:35.216Z,8.07
2023-05-10T12:43:40.898Z,13.45
2023-05-10T12:48:48.618Z,9.07
2023-05-10T12:53:58.649Z,10.02
2023-05-10T12:59:06.655Z,12.50
2023-05-10T13:04:11.388Z,11.18
2023-05-10T13:09:17.688Z,13.00
2023-05-10T13:14:22.881Z,9.50
2023-05-10T13:19:28.464Z,2.38
2023-05-10T13:24:34.769Z,2.90
2023-05-10T13:29:39.718Z,3.78
2023-05-10T13:34:46.357Z,6.65
2023-05-10T13:41:01.544Z,30.20
2023-05-10T13:46:05.282Z,17.80
2023-05-10T13:51:08.669Z,15.15
2023-05-10T13:56:13.715Z,10.60
2023-05-10T14:01:17.280Z,10.95
2023-05-10T14:06:20.645Z,9.00
2023-05-10T14:11:25.566Z,7.38
2023-05-10T14:16:29.457Z,7.35
2023-05-10T14:21:33.003Z,12.07
2023-05-10T14:26:37.736Z,6.50
2023-05-10T14:31:45.374Z,5.78
2023-05-10T14:36:50.126Z,5.80
2023-05-10T14:41:56.255Z,5.47
2023-05-10T14:47:01.158Z,4.85
2023-05-10T14:52:05.758Z,2.50
2023-05-10T14:57:11.537Z,2.28
2023-05-10T15:02:16.528Z,3.83
2023-05-10T15:07:21.828Z,3.28
2023-05-10T15:12:28.031Z,3.33
2023-05-10T15:17:32.929Z,5.95
2023-05-10T15:22:37.669Z,3.60
2023-05-10T15:27:44.744Z,3.08
2023-05-10T15:32:48.532Z,3.78
2023-05-10T15:37:52.205Z,5.70
2023-05-10T15:42:57.585Z,4.30
2023-05-10T15:48:02.090Z,5.20
2023-05-10T15:53:07.503Z,8.25
2023-05-10T15:58:12.717Z,9.23
2023-05-10T16:03:16.630Z,10.48
2023-05-10T16:08:20.260Z,14.27
2023-05-10T16:13:25.938Z,7.63
2023-05-10T16:18:30.410Z,10.63
2023-05-10T16:23:35.082Z,8.15
2023-05-10T16:28:41.438Z,9.57
2023-05-10T16:33:45.684Z,8.60
2023-05-10T16:38:49.938Z,10.18
2023-05-10T16:43:57.635Z,15.57
2023-05-10T16:49:02.304Z,9.48
2023-05-10T16:54:06.545Z,15.30
2023-05-10T16:59:12.302Z,9.07
2023-05-10T17:04:16.777Z,11.57
2023-05-10T17:09:21.491Z,9.48
2023-05-10T17:14:27.417Z,10.88
2023-05-10T17:19:32.068Z,6.57
2023-05-10T17:24:35.682Z,7.70
2023-05-10T17:29:40.397Z,7.50
2023-05-10T17:34:44.670Z,7.13
2023-05-10T17:39:48.076Z,7.28
2023-05-10T17:44:52.843Z,5.18
2023-05-10T17:49:56.203Z,6.25
2023-05-10T17:54:59.586Z,5.13
2023-05-10T18:00:06.387Z,6.57
2023-05-10T18:05:11.619Z,7.67
2023-05-10T18:10:15.038Z,5.22
2023-05-10T18:15:19.951Z,7.57
2023-05-10T18:20:23.823Z,5.93
2023-05-10T18:25:27.439Z,4.38
2023-05-10T18:30:32.234Z,7.93
2023-05-10T18:35:35.999Z,6.25
2023-05-10T18:40:40.139Z,7.28
2023-05-10T18:45:44.946Z,6.10
2023-05-10T18:50:48.450Z,5.75
2023-05-10T18:55:58.499Z,5.40
2023-05-10T19:01:03.286Z,5.22
2023-05-10T19:06:06.671Z,5.13
2023-05-10T19:11:10.096Z,5.45
2023-05-10T19:16:21.852Z,4.47
2023-05-10T19:21:26.732Z,6.35
2023-05-10T19:26:30.301Z,4.38
2023-05-10T19:31:35.634Z,4.75
2023-05-10T19:36:39.129Z,5.10
2023-05-10T19:41:42.746Z,6.18
2023-05-10T19:46:47.622Z,4.50
2023-05-10T19:51:51.002Z,6.30
2023-05-10T19:56:54.392Z,4.80
2023-05-10T20:01:59.225Z,7.30
2023-05-10T20:07:02.623Z,4.40
2023-05-10T20:12:06.173Z,4.60
2023-05-10T20:17:10.977Z,4.00
2023-05-10T20:22:14.422Z,4.20
2023-05-10T20:27:17.916Z,3.42
2023-05-10T20:32:23.285Z,3.58
2023-05-10T20:37:27.598Z,4.00
2023-05-10T20:42:31.428Z,4.43
2023-05-10T20:47:37.413Z,4.18
2023-05-10T20:52:40.939Z,4.03
2023-05-10T20:57:45.104Z,3.80
2023-05-10T21:02:49.974Z,4.13
2023-05-10T21:07:54.208Z,3.80
2023-05-10T21:12:57.860Z,4.05
2023-05-10T21:18:02.852Z,4.40
2023-05-10T21:23:06.583Z,4.53
2023-05-10T21:28:10.466Z,4.10
2023-05-10T21:33:15.330Z,3.95
2023-05-10T21:38:18.669Z,5.18
2023-05-10T21:43:22.212Z,4.18
2023-05-10T21:48:26.922Z,4.40
2023-05-10T21:53:30.436Z,4.90
2023-05-10T21:58:34.034Z,3.65
2023-05-10T22:03:39.308Z,7.30
2023-05-10T22:08:42.700Z,7.72
2023-05-10T22:13:46.095Z,10.43
2023-05-10T22:18:50.895Z,10.35
2023-05-10T22:23:54.373Z,9.55
2023-05-10T22:28:58.186Z,10.52
2023-05-10T22:34:03.472Z,13.35
2023-05-10T22:39:07.561Z,13.98
2023-05-10T22:44:11.361Z,11.43
2023-05-10T22:49:16.655Z,12.68
2023-05-10T22:54:20.434Z,10.77
2023-05-10T22:59:25.640Z,10.20
2023-05-10T23:04:30.788Z,13.52
2023-05-10T23:09:35.086Z,10.15
2023-05-10T23:14:38.936Z,10.15
2023-05-10T23:19:44.184Z,9.40
2023-05-10T23:24:47.540Z,8.38
2023-05-10T23:29:55.649Z,9.43
2023-05-10T23:35:01.136Z,12.00
2023-05-10T23:40:05.026Z,8.70
2023-05-10T23:45:10.338Z,9.30
2023-05-10T23:50:15.785Z,9.38
2023-05-10T23:55:19.656Z,8.05
